Chittagong, Bangladesh
Current Conditions -  °F | °C
As of 11:50 PM on Thursday 18 Dec 2014 (Local Time) from VGEG Reporting Station
Haze Haze  
Wind Chill: 64°   Ceiling: Unl
Heat Index: 64°   Visibility: 2mi
Dew Point: 61°   Wind: 6mph
Humidity: 88%   Direction: 360°N
Pressure: 30.03"   Gusts: NA
Location:  22.43°N, 91.6°E
Report Text: VGEG 181750Z 36005KT 3200 HZ NSC 18/16 Q1017 NOSIG
Loading
Personal Weather Stations






























Interactive Weather Map New forecast layout! Learn more

10-Day Weather Forecast

Advertisements
Track Severe Weather on mobile